createdAt,value
2017-11-18T00:00:01.854Z,0
2017-11-18T00:00:42.671Z,0
2017-11-18T00:01:23.174Z,0
2017-11-18T00:02:03.780Z,0
2017-11-18T00:02:44.321Z,0
2017-11-18T00:03:24.955Z,0
2017-11-18T00:04:05.543Z,0
2017-11-18T00:04:46.218Z,0
2017-11-18T00:05:27.019Z,0
2017-11-18T00:06:07.512Z,0
2017-11-18T00:06:48.089Z,0
2017-11-18T00:07:28.624Z,0
2017-11-18T00:08:09.178Z,0
2017-11-18T00:08:49.706Z,0
2017-11-18T00:09:30.326Z,0
2017-11-18T00:10:10.922Z,0
2017-11-18T00:10:51.449Z,0
2017-11-18T00:11:32.159Z,0
2017-11-18T00:12:12.697Z,0
2017-11-18T00:12:53.269Z,0
2017-11-18T00:13:33.880Z,0
2017-11-18T00:14:14.474Z,0
2017-11-18T00:14:55.165Z,0
2017-11-18T00:15:36.062Z,0
2017-11-18T00:16:17.078Z,0
2017-11-18T00:16:57.668Z,0
2017-11-18T00:17:38.320Z,0
2017-11-18T00:18:18.827Z,0
2017-11-18T00:18:59.389Z,0
2017-11-18T00:19:39.962Z,0
2017-11-18T00:20:20.544Z,0
2017-11-18T00:21:01.149Z,0
2017-11-18T00:21:41.716Z,0
2017-11-18T00:22:22.248Z,0
2017-11-18T00:23:02.778Z,0
2017-11-18T00:23:43.572Z,0
2017-11-18T00:24:23.997Z,0
2017-11-18T00:25:04.547Z,0
2017-11-18T00:25:45.203Z,0
2017-11-18T00:26:25.962Z,0
2017-11-18T00:27:06.676Z,0
2017-11-18T00:27:47.188Z,0
2017-11-18T00:28:27.675Z,0
2017-11-18T00:29:08.235Z,0
2017-11-18T00:29:48.813Z,0
2017-11-18T00:30:29.364Z,0
2017-11-18T00:31:09.992Z,0
2017-11-18T00:31:50.518Z,0
2017-11-18T00:32:31.117Z,0
2017-11-18T00:33:11.630Z,0
2017-11-18T00:33:52.214Z,0
2017-11-18T00:34:32.792Z,0
2017-11-18T00:35:13.341Z,0
2017-11-18T00:35:54.691Z,0
2017-11-18T00:36:35.289Z,0
2017-11-18T00:37:15.838Z,0
2017-11-18T00:37:56.470Z,0
2017-11-18T00:38:37.019Z,0
2017-11-18T00:39:17.564Z,0
2017-11-18T00:39:58.092Z,0
2017-11-18T00:40:38.700Z,0
2017-11-18T00:41:19.271Z,0
2017-11-18T00:41:59.768Z,0
2017-11-18T00:42:40.286Z,0
2017-11-18T00:43:20.886Z,0
2017-11-18T00:44:01.537Z,0
2017-11-18T00:44:42.047Z,0
2017-11-18T00:45:22.647Z,0
2017-11-18T00:46:03.204Z,0
2017-11-18T00:46:43.738Z,0
2017-11-18T00:47:24.347Z,0
2017-11-18T00:48:05.179Z,0
2017-11-18T00:48:45.769Z,0
2017-11-18T00:49:26.974Z,0
2017-11-18T00:50:07.536Z,0
2017-11-18T00:50:48.087Z,0
2017-11-18T00:51:28.780Z,0
2017-11-18T00:52:09.376Z,0
2017-11-18T00:52:49.878Z,0
2017-11-18T00:53:30.435Z,0
2017-11-18T00:54:10.940Z,0
2017-11-18T00:54:51.473Z,0
2017-11-18T00:55:32.287Z,0
2017-11-18T00:56:12.852Z,0
2017-11-18T00:56:53.358Z,0
2017-11-18T00:57:33.893Z,0
2017-11-18T00:58:14.442Z,0
2017-11-18T00:58:54.966Z,0
2017-11-18T00:59:35.562Z,0
2017-11-18T01:00:16.734Z,0
2017-11-18T01:00:57.433Z,0
2017-11-18T01:01:37.994Z,0
2017-11-18T01:02:18.567Z,0
2017-11-18T01:02:59.085Z,0
2017-11-18T01:03:39.586Z,0
2017-11-18T01:04:20.132Z,0
2017-11-18T01:05:00.822Z,0
2017-11-18T01:05:41.321Z,0
2017-11-18T01:06:21.873Z,0
2017-11-18T01:07:02.381Z,0
2017-11-18T01:07:43.002Z,0
2017-11-18T01:08:23.467Z,0
2017-11-18T01:09:04.169Z,0
2017-11-18T01:09:44.703Z,0
2017-11-18T01:10:25.246Z,0
2017-11-18T01:11:05.795Z,0
2017-11-18T01:11:46.341Z,0
2017-11-18T01:12:26.846Z,0
2017-11-18T01:13:07.364Z,0
2017-11-18T01:13:48.109Z,0
2017-11-18T01:14:28.659Z,0
2017-11-18T01:15:09.234Z,0
2017-11-18T01:15:49.766Z,0
2017-11-18T01:16:30.362Z,0
2017-11-18T01:17:10.856Z,0
2017-11-18T01:17:51.403Z,0
2017-11-18T01:18:31.918Z,0
2017-11-18T01:19:12.437Z,0
2017-11-18T01:19:52.980Z,0
2017-11-18T01:20:33.541Z,0
2017-11-18T01:21:14.038Z,0
2017-11-18T01:21:54.577Z,0
2017-11-18T01:22:35.122Z,0
2017-11-18T01:23:15.637Z,0
2017-11-18T01:23:56.185Z,0
2017-11-18T01:24:36.683Z,0
2017-11-18T01:25:17.218Z,0
2017-11-18T01:25:57.760Z,0
2017-11-18T01:26:38.417Z,0
2017-11-18T01:27:19.020Z,0
2017-11-18T01:27:59.653Z,0
2017-11-18T01:28:40.263Z,0
2017-11-18T01:29:20.883Z,0
2017-11-18T01:30:01.440Z,0
2017-11-18T01:30:41.939Z,0
2017-11-18T01:31:22.507Z,0
2017-11-18T01:32:03.035Z,0
2017-11-18T01:32:43.709Z,0
2017-11-18T01:33:24.226Z,0
2017-11-18T01:34:04.794Z,0
2017-11-18T01:34:45.387Z,0
2017-11-18T01:35:25.903Z,0
2017-11-18T01:36:06.468Z,0
2017-11-18T01:36:47.083Z,0
2017-11-18T01:37:27.645Z,0
2017-11-18T01:38:08.198Z,0
2017-11-18T01:38:48.847Z,0
2017-11-18T01:39:29.248Z,0
2017-11-18T01:40:09.797Z,0
2017-11-18T01:40:50.299Z,0
2017-11-18T01:41:30.855Z,0
2017-11-18T01:42:11.354Z,0
2017-11-18T01:42:51.965Z,0
2017-11-18T01:43:32.477Z,0
2017-11-18T01:44:13.017Z,0
2017-11-18T01:44:53.566Z,0
2017-11-18T01:45:34.184Z,0
2017-11-18T01:46:14.864Z,0
2017-11-18T01:46:55.423Z,0
2017-11-18T01:47:35.960Z,0
2017-11-18T01:48:16.511Z,0
2017-11-18T01:48:57.072Z,0
2017-11-18T01:49:37.645Z,0
2017-11-18T01:50:18.160Z,0
2017-11-18T01:50:58.735Z,0
2017-11-18T01:51:39.369Z,0
2017-11-18T01:52:20.031Z,0
2017-11-18T01:53:00.584Z,0
2017-11-18T01:53:41.120Z,0
2017-11-18T01:54:21.660Z,0
2017-11-18T01:55:02.196Z,0
2017-11-18T01:55:42.754Z,0
2017-11-18T01:56:23.435Z,0
2017-11-18T01:57:03.973Z,0
2017-11-18T01:57:44.531Z,0
2017-11-18T01:58:25.086Z,0
2017-11-18T01:59:05.632Z,0
2017-11-18T01:59:46.194Z,0
2017-11-18T02:00:26.696Z,0
2017-11-18T02:01:07.242Z,0
2017-11-18T02:01:47.809Z,0
2017-11-18T02:02:28.337Z,0
2017-11-18T02:03:08.879Z,0
2017-11-18T02:03:49.387Z,0
2017-11-18T02:04:30.057Z,0
2017-11-18T02:05:10.617Z,0
2017-11-18T02:05:51.180Z,0
2017-11-18T02:06:31.737Z,0
2017-11-18T02:07:12.300Z,0
2017-11-18T02:07:52.799Z,0
2017-11-18T02:08:33.335Z,0
2017-11-18T02:09:13.857Z,0
2017-11-18T02:09:54.502Z,0
2017-11-18T02:10:35.021Z,0
2017-11-18T02:11:15.575Z,0
2017-11-18T02:11:56.155Z,0
2017-11-18T02:12:36.643Z,0
2017-11-18T02:13:17.204Z,0
2017-11-18T02:13:57.766Z,0
2017-11-18T02:14:38.567Z,0
2017-11-18T02:15:19.125Z,0
2017-11-18T02:15:59.673Z,0
2017-11-18T02:16:40.139Z,0
2017-11-18T02:17:20.782Z,0
2017-11-18T02:18:01.358Z,0
2017-11-18T02:18:41.913Z,0
2017-11-18T02:19:22.457Z,0
2017-11-18T02:20:02.985Z,0
2017-11-18T02:20:43.567Z,0
2017-11-18T02:21:24.110Z,0
2017-11-18T02:22:04.644Z,0
2017-11-18T02:22:45.168Z,0
2017-11-18T02:23:25.800Z,0
2017-11-18T02:24:06.327Z,0
2017-11-18T02:24:46.870Z,0
2017-11-18T02:25:27.441Z,0
2017-11-18T02:26:07.963Z,0
2017-11-18T02:26:48.540Z,0
2017-11-18T02:27:29.072Z,0
2017-11-18T02:28:09.711Z,0
2017-11-18T02:28:50.151Z,0
2017-11-18T02:29:30.743Z,0
2017-11-18T02:30:11.379Z,0
2017-11-18T02:30:51.931Z,0
2017-11-18T02:31:32.469Z,0
2017-11-18T02:32:12.940Z,0
2017-11-18T02:32:53.646Z,0
2017-11-18T02:33:34.154Z,0
2017-11-18T02:34:14.692Z,0
2017-11-18T02:34:55.275Z,0
2017-11-18T02:35:35.752Z,0
2017-11-18T02:36:16.307Z,0
2017-11-18T02:36:56.932Z,0
2017-11-18T02:37:37.464Z,0
2017-11-18T02:38:17.973Z,0
2017-11-18T02:38:58.517Z,0
2017-11-18T02:39:39.045Z,0
2017-11-18T02:40:19.676Z,0
2017-11-18T02:41:00.179Z,0
2017-11-18T02:41:40.783Z,0
2017-11-18T02:42:21.312Z,0
2017-11-18T02:43:01.914Z,0
2017-11-18T02:43:42.442Z,0
2017-11-18T02:44:22.946Z,0
2017-11-18T02:45:03.557Z,0
2017-11-18T02:45:44.075Z,0
2017-11-18T02:46:24.605Z,0
2017-11-18T02:47:05.180Z,0
2017-11-18T02:47:45.715Z,0
2017-11-18T02:48:26.305Z,0
2017-11-18T02:49:06.875Z,0
2017-11-18T02:49:47.444Z,0
2017-11-18T02:50:28.008Z,0
2017-11-18T02:51:08.647Z,0
2017-11-18T02:51:49.104Z,0
2017-11-18T02:52:29.705Z,0
2017-11-18T02:53:10.177Z,0
2017-11-18T02:53:51.482Z,0
2017-11-18T02:54:32.324Z,0
2017-11-18T02:55:12.887Z,0
2017-11-18T02:55:53.403Z,0
2017-11-18T02:56:34.064Z,0
2017-11-18T03:00:35.310Z,0
2017-11-18T03:01:15.792Z,0
2017-11-18T03:01:56.320Z,0
2017-11-18T03:02:36.870Z,0
2017-11-18T03:03:17.413Z,0
2017-11-18T03:03:57.984Z,0
2017-11-18T03:04:38.531Z,0
2017-11-18T03:05:19.079Z,0
2017-11-18T03:05:59.619Z,0
2017-11-18T03:06:40.106Z,0
2017-11-18T03:07:20.774Z,0
2017-11-18T03:08:01.329Z,0
2017-11-18T03:08:41.844Z,0
2017-11-18T03:09:22.423Z,0
2017-11-18T03:10:03.102Z,0
2017-11-18T03:10:43.571Z,0
2017-11-18T03:11:24.031Z,0
2017-11-18T03:12:04.620Z,0
2017-11-18T03:12:45.156Z,0
2017-11-18T03:13:25.719Z,0
2017-11-18T03:14:06.370Z,0
2017-11-18T03:14:46.952Z,0
2017-11-18T03:15:27.453Z,0
2017-11-18T03:16:08.250Z,0
2017-11-18T03:16:48.823Z,0
2017-11-18T03:17:29.356Z,0
2017-11-18T03:18:09.858Z,0
2017-11-18T03:18:50.376Z,0
2017-11-18T03:19:30.897Z,0
2017-11-18T03:20:11.444Z,0
2017-11-18T03:20:52.032Z,0
2017-11-18T03:21:32.618Z,0
2017-11-18T03:22:13.075Z,0
2017-11-18T03:22:53.650Z,0
2017-11-18T03:23:34.189Z,0
2017-11-18T03:24:14.712Z,0
2017-11-18T03:24:55.229Z,0
2017-11-18T03:25:35.757Z,0
2017-11-18T03:26:16.330Z,0
2017-11-18T03:26:56.895Z,0
2017-11-18T03:27:37.419Z,0
2017-11-18T03:28:17.909Z,0
2017-11-18T03:28:58.446Z,0
2017-11-18T03:29:39.065Z,0
2017-11-18T03:30:19.578Z,0
2017-11-18T03:31:00.269Z,0
2017-11-18T03:31:40.769Z,0
2017-11-18T03:32:21.245Z,0
2017-11-18T03:33:01.846Z,0
2017-11-18T03:33:42.367Z,0
2017-11-18T03:34:22.864Z,0
2017-11-18T03:35:03.512Z,0
2017-11-18T03:35:44.185Z,0
2017-11-18T03:36:24.630Z,0
2017-11-18T03:37:05.181Z,0
2017-11-18T03:37:45.712Z,0
2017-11-18T03:38:26.238Z,0
2017-11-18T03:39:06.831Z,0
2017-11-18T03:39:47.350Z,0
2017-11-18T03:40:27.889Z,0
2017-11-18T03:41:08.452Z,0
2017-11-18T03:41:49.089Z,0
2017-11-18T03:42:29.694Z,0
2017-11-18T03:43:10.192Z,0
2017-11-18T03:43:50.676Z,0
2017-11-18T03:44:31.221Z,0
2017-11-18T03:45:11.835Z,0
2017-11-18T03:45:52.451Z,0
2017-11-18T03:46:32.970Z,0
2017-11-18T03:47:13.488Z,0
2017-11-18T03:47:53.982Z,0
2017-11-18T03:48:34.616Z,0
2017-11-18T03:49:15.216Z,0
2017-11-18T03:49:55.924Z,0
2017-11-18T03:50:36.461Z,0
2017-11-18T03:51:17.013Z,0
2017-11-18T03:51:57.758Z,0
2017-11-18T03:52:38.345Z,0
2017-11-18T03:53:18.836Z,0
2017-11-18T03:53:59.821Z,0
2017-11-18T03:54:40.358Z,0
2017-11-18T03:55:20.956Z,0
2017-11-18T03:56:01.935Z,0
2017-11-18T03:56:41.977Z,0
2017-11-18T03:57:22.510Z,0
2017-11-18T03:58:03.101Z,0
2017-11-18T03:58:43.667Z,0
2017-11-18T03:59:24.309Z,0
2017-11-18T04:00:04.904Z,0
2017-11-18T04:00:45.495Z,0
2017-11-18T04:01:26.046Z,0
2017-11-18T04:02:06.617Z,0
2017-11-18T04:02:47.108Z,0
2017-11-18T04:03:27.695Z,0
2017-11-18T04:04:08.243Z,0
2017-11-18T04:04:48.783Z,0
2017-11-18T04:05:29.407Z,0
2017-11-18T04:06:09.885Z,0
2017-11-18T04:06:50.451Z,0
2017-11-18T04:07:31.131Z,0
2017-11-18T04:08:11.651Z,0
2017-11-18T04:08:52.186Z,0
2017-11-18T04:09:32.763Z,0
2017-11-18T04:10:13.276Z,0
2017-11-18T04:10:53.825Z,0
2017-11-18T04:11:34.312Z,0
2017-11-18T04:12:14.889Z,0
2017-11-18T04:12:55.428Z,0
2017-11-18T04:13:36.019Z,0
2017-11-18T04:14:16.524Z,0
2017-11-18T04:14:57.135Z,0
2017-11-18T04:15:37.700Z,0
2017-11-18T04:16:18.271Z,0
2017-11-18T04:16:58.803Z,0
2017-11-18T04:17:39.334Z,0
2017-11-18T04:18:19.833Z,0
2017-11-18T04:19:00.392Z,0
2017-11-18T04:19:40.911Z,0
2017-11-18T04:20:21.419Z,0
2017-11-18T04:21:02.030Z,0
2017-11-18T04:21:42.697Z,0
2017-11-18T04:22:23.229Z,0
2017-11-18T04:23:03.868Z,0
2017-11-18T04:23:44.328Z,0
2017-11-18T04:24:24.866Z,0
2017-11-18T04:25:05.411Z,0
2017-11-18T04:25:45.978Z,0
2017-11-18T04:26:26.570Z,0
2017-11-18T04:27:07.223Z,0
2017-11-18T04:27:47.789Z,0
2017-11-18T04:28:28.329Z,0
2017-11-18T04:29:08.879Z,0
2017-11-18T04:29:49.447Z,0
2017-11-18T04:30:30.129Z,0
2017-11-18T04:31:10.714Z,0
2017-11-18T04:31:51.284Z,0
2017-11-18T04:32:31.789Z,0
2017-11-18T04:33:12.420Z,0
2017-11-18T04:33:52.930Z,0
2017-11-18T04:34:33.448Z,0
2017-11-18T04:35:14.005Z,0
2017-11-18T04:35:54.515Z,0
2017-11-18T04:36:35.046Z,0
2017-11-18T04:37:15.563Z,0
2017-11-18T04:37:56.135Z,0
2017-11-18T04:38:36.679Z,0
2017-11-18T04:39:17.293Z,0
2017-11-18T04:39:57.831Z,0
2017-11-18T04:40:38.348Z,0
2017-11-18T04:41:18.859Z,0
2017-11-18T04:41:59.419Z,0
2017-11-18T04:42:39.968Z,0
2017-11-18T04:43:20.461Z,0
2017-11-18T04:44:01.055Z,0
2017-11-18T04:44:41.593Z,0
2017-11-18T04:45:22.191Z,0
2017-11-18T04:46:02.679Z,0
2017-11-18T04:46:43.189Z,0
2017-11-18T04:47:23.761Z,0
2017-11-18T04:48:04.278Z,0
2017-11-18T04:48:44.943Z,0
2017-11-18T04:49:25.539Z,0
2017-11-18T04:50:06.068Z,0
2017-11-18T04:50:46.593Z,0
2017-11-18T04:51:27.120Z,0
2017-11-18T04:52:07.794Z,0
2017-11-18T04:52:48.296Z,0
2017-11-18T04:53:28.835Z,0
2017-11-18T04:54:09.336Z,0
2017-11-18T04:54:49.909Z,0
2017-11-18T04:55:30.416Z,0
2017-11-18T04:56:10.936Z,0
2017-11-18T04:56:51.496Z,0
2017-11-18T04:57:31.981Z,0
2017-11-18T04:58:12.665Z,0
2017-11-18T04:58:53.214Z,0
2017-11-18T04:59:33.784Z,0
2017-11-18T05:00:14.307Z,0
2017-11-18T05:00:54.877Z,0
2017-11-18T05:01:35.358Z,0
2017-11-18T05:02:15.911Z,0
2017-11-18T05:02:56.391Z,0
2017-11-18T05:03:36.973Z,0
2017-11-18T05:04:17.518Z,0
2017-11-18T05:04:58.354Z,0
2017-11-18T05:05:38.981Z,0
2017-11-18T05:06:22.177Z,0
2017-11-18T05:07:02.728Z,0
2017-11-18T05:07:43.280Z,0
2017-11-18T05:08:23.763Z,0
2017-11-18T05:09:04.294Z,0
2017-11-18T05:09:44.822Z,0
2017-11-18T05:10:25.374Z,0
2017-11-18T05:11:05.901Z,0
2017-11-18T05:11:46.481Z,0
2017-11-18T05:12:26.969Z,0
2017-11-18T05:13:07.538Z,0
2017-11-18T05:13:48.163Z,0
2017-11-18T05:14:28.804Z,0
2017-11-18T05:15:09.247Z,0
2017-11-18T05:15:49.774Z,0
2017-11-18T05:16:30.287Z,0
2017-11-18T05:17:10.818Z,0
2017-11-18T05:17:51.927Z,0
2017-11-18T05:18:32.426Z,0
2017-11-18T05:19:13.068Z,0
2017-11-18T05:19:53.695Z,0
2017-11-18T05:20:34.382Z,0
2017-11-18T05:21:15.467Z,0
2017-11-18T05:21:55.426Z,0
2017-11-18T05:22:35.917Z,0
2017-11-18T05:23:16.440Z,0
2017-11-18T05:23:56.965Z,0
2017-11-18T05:24:37.535Z,0
2017-11-18T05:25:18.027Z,0
2017-11-18T05:25:58.644Z,0
2017-11-18T05:26:39.213Z,0
2017-11-18T05:27:19.723Z,0
2017-11-18T05:28:00.262Z,0
2017-11-18T05:28:40.883Z,0
2017-11-18T05:29:21.377Z,0
2017-11-18T05:30:01.947Z,0
2017-11-18T05:30:42.491Z,0
2017-11-18T05:31:23.025Z,0
2017-11-18T05:32:03.582Z,0
2017-11-18T05:32:47.195Z,0
2017-11-18T05:33:28.150Z,0
2017-11-18T05:34:08.664Z,0
2017-11-18T05:34:49.249Z,0
2017-11-18T05:35:30.046Z,0
2017-11-18T05:36:10.555Z,0
2017-11-18T05:36:51.100Z,0
2017-11-18T05:37:31.654Z,0
2017-11-18T05:38:12.235Z,0
2017-11-18T05:38:52.784Z,0
2017-11-18T05:39:33.331Z,0
2017-11-18T05:40:13.893Z,0
2017-11-18T05:40:54.510Z,0
2017-11-18T05:41:35.054Z,0
2017-11-18T05:42:15.575Z,0
2017-11-18T05:42:56.128Z,0
2017-11-18T05:43:37.476Z,0
2017-11-18T05:44:18.631Z,0
2017-11-18T05:44:59.145Z,0
2017-11-18T05:45:39.815Z,0
2017-11-18T05:46:20.391Z,0
2017-11-18T05:47:00.909Z,0
2017-11-18T05:47:42.438Z,0
2017-11-18T05:48:23.003Z,0
2017-11-18T05:49:03.521Z,0
2017-11-18T05:49:44.043Z,0
2017-11-18T05:50:24.590Z,0
2017-11-18T05:51:05.132Z,0
2017-11-18T05:51:45.708Z,0
2017-11-18T05:52:26.551Z,0
2017-11-18T05:53:07.127Z,0
2017-11-18T05:53:47.655Z,0
2017-11-18T05:54:28.206Z,0
2017-11-18T05:55:08.784Z,0
2017-11-18T05:55:49.658Z,0
2017-11-18T05:56:30.113Z,0
2017-11-18T05:57:10.669Z,0
2017-11-18T05:57:51.211Z,0
2017-11-18T05:58:31.741Z,0
2017-11-18T05:59:12.353Z,0
2017-11-18T05:59:53.685Z,0
2017-11-18T06:00:34.237Z,0
2017-11-18T06:01:14.788Z,0
2017-11-18T06:01:55.438Z,0
2017-11-18T06:02:35.917Z,0
2017-11-18T06:03:16.538Z,0
2017-11-18T06:03:57.096Z,0
2017-11-18T06:04:37.725Z,0
2017-11-18T06:05:18.252Z,0
2017-11-18T06:05:58.918Z,0
2017-11-18T06:06:39.375Z,0
2017-11-18T06:07:19.923Z,0
2017-11-18T06:08:00.495Z,0
2017-11-18T06:08:41.000Z,0
2017-11-18T06:09:21.533Z,0
2017-11-18T06:10:02.041Z,0
2017-11-18T06:10:42.588Z,0
2017-11-18T06:11:23.149Z,0
2017-11-18T06:12:03.632Z,0
2017-11-18T06:12:44.195Z,0
2017-11-18T06:13:24.719Z,0
2017-11-18T06:14:05.407Z,0
2017-11-18T06:14:45.883Z,0
2017-11-18T06:15:26.488Z,0
2017-11-18T06:16:07.031Z,0
2017-11-18T06:16:47.711Z,0
2017-11-18T06:17:28.301Z,0
2017-11-18T06:18:08.785Z,0
2017-11-18T06:18:49.326Z,0
2017-11-18T06:19:29.849Z,0
2017-11-18T06:20:10.479Z,0
2017-11-18T06:20:51.056Z,0
2017-11-18T06:21:31.612Z,0
2017-11-18T06:22:12.552Z,0
2017-11-18T06:22:53.243Z,0
2017-11-18T06:23:33.807Z,0
2017-11-18T06:24:14.314Z,0
2017-11-18T06:24:55.326Z,0
2017-11-18T06:25:35.863Z,0
2017-11-18T06:26:16.397Z,0
2017-11-18T06:26:56.961Z,0
2017-11-18T06:27:37.465Z,0
2017-11-18T06:28:18.025Z,0
2017-11-18T06:28:58.576Z,0
2017-11-18T06:29:39.098Z,0
2017-11-18T06:30:19.643Z,0
2017-11-18T06:31:00.153Z,0
2017-11-18T06:31:40.772Z,0
2017-11-18T06:32:21.261Z,0
2017-11-18T06:33:01.881Z,0
2017-11-18T06:33:42.423Z,0
2017-11-18T06:34:23.137Z,0
2017-11-18T06:35:03.691Z,0
2017-11-18T06:35:44.280Z,0
2017-11-18T06:36:24.718Z,0
2017-11-18T06:37:05.352Z,0
2017-11-18T06:37:45.894Z,0
2017-11-18T06:38:26.441Z,0
2017-11-18T06:39:06.994Z,0
2017-11-18T06:39:47.593Z,0
2017-11-18T06:40:28.101Z,0
2017-11-18T06:41:08.598Z,0
2017-11-18T06:41:49.229Z,0
2017-11-18T06:42:29.764Z,0
2017-11-18T06:43:10.325Z,0
2017-11-18T06:43:50.854Z,0
2017-11-18T06:44:31.382Z,0
2017-11-18T06:45:12.078Z,0
2017-11-18T06:45:52.693Z,0
2017-11-18T06:46:33.272Z,0
2017-11-18T06:47:13.750Z,0
2017-11-18T06:47:54.264Z,0
2017-11-18T06:48:34.908Z,0
2017-11-18T06:49:15.448Z,0
2017-11-18T06:49:56.207Z,0
2017-11-18T06:50:36.734Z,0
2017-11-18T06:51:17.257Z,0
2017-11-18T06:51:57.807Z,0
2017-11-18T06:52:38.344Z,0
2017-11-18T06:53:18.918Z,0
2017-11-18T06:53:59.466Z,0
2017-11-18T06:54:40.026Z,0
2017-11-18T06:55:20.586Z,0
2017-11-18T06:56:01.102Z,0
2017-11-18T06:56:41.698Z,0
2017-11-18T06:57:22.319Z,0
2017-11-18T06:58:03.258Z,0
2017-11-18T06:58:43.884Z,0
2017-11-18T06:59:24.446Z,0
2017-11-18T07:00:04.954Z,0
2017-11-18T07:02:45.784Z,0
2017-11-18T07:03:26.314Z,0
2017-11-18T07:04:06.955Z,0
2017-11-18T07:04:47.909Z,0
2017-11-18T07:05:28.385Z,0
2017-11-18T07:06:09.034Z,0
2017-11-18T07:06:49.798Z,0
2017-11-18T07:07:30.398Z,0
2017-11-18T07:08:10.976Z,0
2017-11-18T07:08:51.487Z,0
2017-11-18T07:09:33.880Z,0
2017-11-18T07:10:13.520Z,0
2017-11-18T07:10:54.181Z,0
2017-11-18T07:11:34.709Z,0
2017-11-18T07:12:15.237Z,0
2017-11-18T07:12:56.820Z,0
2017-11-18T07:13:37.338Z,0
2017-11-18T07:14:18.766Z,0
2017-11-18T07:14:59.346Z,0
2017-11-18T07:15:39.861Z,0
2017-11-18T07:16:20.424Z,0
2017-11-18T07:17:00.964Z,0
2017-11-18T07:17:41.530Z,0
2017-11-18T07:18:22.973Z,0
2017-11-18T07:19:03.802Z,0
2017-11-18T07:19:44.543Z,0
2017-11-18T07:20:25.050Z,5
2017-11-18T07:21:05.606Z,5
2017-11-18T07:21:46.511Z,5
2017-11-18T07:22:28.032Z,5
2017-11-18T07:23:08.545Z,5
2017-11-18T07:23:49.149Z,5
2017-11-18T07:24:29.731Z,5
2017-11-18T07:25:10.941Z,5
2017-11-18T07:25:53.071Z,5
2017-11-18T07:26:33.696Z,5
2017-11-18T07:27:14.618Z,5
2017-11-18T07:27:55.515Z,5
2017-11-18T07:28:36.202Z,5
2017-11-18T07:29:16.721Z,0
2017-11-18T07:29:57.359Z,5
2017-11-18T07:30:37.968Z,5
2017-11-18T07:31:18.559Z,5
2017-11-18T07:31:59.216Z,5
2017-11-18T07:32:40.041Z,5
2017-11-18T07:33:20.351Z,5
2017-11-18T07:34:00.972Z,5
2017-11-18T07:34:41.512Z,5
2017-11-18T07:35:22.137Z,5
2017-11-18T07:36:02.597Z,5
2017-11-18T07:36:43.190Z,5
2017-11-18T07:37:25.131Z,5
2017-11-18T07:38:06.980Z,5
2017-11-18T07:38:46.835Z,5
2017-11-18T07:39:27.617Z,5
2017-11-18T07:40:08.087Z,5
2017-11-18T07:40:48.616Z,10
2017-11-18T07:41:29.149Z,10
2017-11-18T07:42:09.685Z,10
2017-11-18T07:42:50.328Z,10
2017-11-18T07:43:30.900Z,10
2017-11-18T07:44:11.616Z,10
2017-11-18T07:44:52.106Z,10
2017-11-18T07:45:32.759Z,10
2017-11-18T07:46:13.291Z,10
2017-11-18T07:46:53.825Z,10
2017-11-18T07:47:34.343Z,10
2017-11-18T07:48:14.993Z,10
2017-11-18T07:48:55.501Z,10
2017-11-18T07:49:35.980Z,10
2017-11-18T07:50:16.606Z,10
2017-11-18T07:50:57.279Z,15
2017-11-18T07:51:37.743Z,15
2017-11-18T07:52:18.282Z,15
2017-11-18T07:52:58.837Z,15
2017-11-18T07:53:39.382Z,15
2017-11-18T07:54:19.942Z,15
2017-11-18T07:55:00.513Z,15
2017-11-18T07:55:41.026Z,15
2017-11-18T07:56:21.742Z,15
2017-11-18T07:57:47.933Z,15
2017-11-18T07:58:28.590Z,15
2017-11-18T07:59:09.048Z,15
2017-11-18T07:59:49.648Z,20
2017-11-18T08:00:30.148Z,20
2017-11-18T08:01:10.704Z,20
2017-11-18T08:01:51.566Z,20
2017-11-18T08:02:32.123Z,20
2017-11-18T08:03:12.660Z,20
2017-11-18T08:03:53.237Z,20
2017-11-18T08:04:33.909Z,20
2017-11-18T08:05:14.910Z,25
2017-11-18T08:05:54.962Z,20
2017-11-18T08:06:35.514Z,25
2017-11-18T08:07:16.089Z,25
2017-11-18T08:07:56.716Z,25
2017-11-18T08:08:37.177Z,25
2017-11-18T08:09:17.923Z,25
2017-11-18T08:09:58.281Z,25
2017-11-18T08:10:38.812Z,20
2017-11-18T08:11:19.399Z,25
2017-11-18T08:11:59.896Z,25
2017-11-18T08:12:40.486Z,30
2017-11-18T08:13:21.030Z,30
2017-11-18T08:14:01.766Z,30
2017-11-18T08:14:42.376Z,25
2017-11-18T08:15:22.866Z,25
2017-11-18T08:16:03.441Z,25
2017-11-18T08:16:44.055Z,30
2017-11-18T08:17:24.693Z,30
2017-11-18T08:18:05.453Z,30
2017-11-18T08:18:46.042Z,30
2017-11-18T08:19:26.662Z,30
2017-11-18T08:20:07.783Z,30
2017-11-18T08:20:48.304Z,35
2017-11-18T08:21:28.821Z,35
2017-11-18T08:22:09.719Z,30
2017-11-18T08:22:52.209Z,30
2017-11-18T08:23:33.071Z,30
2017-11-18T08:24:13.969Z,30
2017-11-18T08:24:54.731Z,30
2017-11-18T08:25:35.573Z,30
2017-11-18T08:26:16.177Z,30
2017-11-18T08:26:56.739Z,30
2017-11-18T08:27:37.359Z,30
2017-11-18T08:28:17.820Z,35
2017-11-18T08:28:58.341Z,40
2017-11-18T08:29:38.862Z,40
2017-11-18T08:30:19.461Z,35
2017-11-18T08:31:00.048Z,35
2017-11-18T08:31:40.583Z,35
2017-11-18T08:32:21.156Z,35
2017-11-18T08:33:02.015Z,35
2017-11-18T08:33:43.225Z,35
2017-11-18T08:34:23.804Z,40
2017-11-18T08:35:04.400Z,40
2017-11-18T08:35:44.956Z,40
2017-11-18T08:36:25.576Z,40
2017-11-18T08:37:06.202Z,40
2017-11-18T08:37:47.100Z,40
2017-11-18T08:38:27.815Z,40
2017-11-18T08:39:08.516Z,40
2017-11-18T08:39:49.332Z,45
2017-11-18T08:40:29.937Z,45
2017-11-18T08:41:10.664Z,50
2017-11-18T08:41:51.209Z,45
2017-11-18T08:42:31.759Z,45
2017-11-18T08:43:12.394Z,45
2017-11-18T08:43:53.072Z,45
2017-11-18T08:44:33.591Z,50
2017-11-18T08:45:14.079Z,55
2017-11-18T08:45:54.633Z,55
2017-11-18T08:46:35.211Z,55
2017-11-18T08:47:15.834Z,55
2017-11-18T08:47:56.553Z,50
2017-11-18T08:48:37.092Z,50
2017-11-18T08:49:17.606Z,50
2017-11-18T08:49:58.309Z,55
2017-11-18T08:50:38.931Z,65
2017-11-18T08:51:19.494Z,60
2017-11-18T08:52:00.030Z,65
2017-11-18T08:52:40.764Z,75
2017-11-18T08:53:21.209Z,75
2017-11-18T08:54:01.749Z,65
2017-11-18T08:54:42.364Z,65
2017-11-18T08:55:22.932Z,65
2017-11-18T08:56:03.531Z,70
2017-11-18T08:56:44.033Z,70
2017-11-18T08:57:24.558Z,75
2017-11-18T08:58:05.168Z,70
2017-11-18T08:58:45.831Z,75
2017-11-18T08:59:26.404Z,75
2017-11-18T09:00:06.993Z,75
2017-11-18T09:00:47.570Z,75
2017-11-18T09:01:28.041Z,70
2017-11-18T09:02:08.823Z,65
2017-11-18T09:02:49.268Z,60
2017-11-18T09:03:29.758Z,55
2017-11-18T09:04:10.254Z,60
2017-11-18T09:04:50.855Z,65
2017-11-18T09:05:31.373Z,65
2017-11-18T09:06:11.962Z,60
2017-11-18T09:06:52.475Z,55
2017-11-18T09:07:32.988Z,55
2017-11-18T09:08:13.525Z,60
2017-11-18T09:08:54.120Z,60
2017-11-18T09:09:34.737Z,55
2017-11-18T09:10:15.281Z,55
2017-11-18T09:10:55.824Z,55
2017-11-18T09:11:36.447Z,60
2017-11-18T09:12:16.931Z,65
2017-11-18T09:12:57.527Z,70
2017-11-18T09:13:38.052Z,70
2017-11-18T09:14:18.613Z,70
2017-11-18T09:14:59.159Z,70
2017-11-18T09:15:39.793Z,65
2017-11-18T09:16:20.363Z,75
2017-11-18T09:17:00.929Z,80
2017-11-18T09:17:41.550Z,80
2017-11-18T09:18:22.104Z,85
2017-11-18T09:19:02.621Z,85
2017-11-18T09:19:43.134Z,80
2017-11-18T09:20:23.776Z,80
2017-11-18T09:21:04.434Z,85
2017-11-18T09:21:45.000Z,90
2017-11-18T09:22:25.593Z,90
2017-11-18T09:23:06.104Z,90
2017-11-18T09:23:46.616Z,90
2017-11-18T09:24:27.173Z,95
2017-11-18T09:25:07.688Z,95
2017-11-18T09:25:48.313Z,90
2017-11-18T09:26:28.892Z,90
2017-11-18T09:27:10.257Z,90
2017-11-18T09:27:50.852Z,90
2017-11-18T09:28:31.538Z,90
2017-11-18T09:29:12.069Z,90
2017-11-18T09:29:52.897Z,90
2017-11-18T09:30:33.719Z,85
2017-11-18T09:31:14.095Z,80
2017-11-18T09:31:55.526Z,85
2017-11-18T09:32:35.317Z,85
2017-11-18T09:33:15.885Z,85
2017-11-18T09:33:56.439Z,80
2017-11-18T09:34:37.002Z,80
2017-11-18T09:35:17.575Z,80
2017-11-18T09:35:58.129Z,75
2017-11-18T09:36:38.716Z,75
2017-11-18T09:37:19.200Z,75
2017-11-18T09:37:59.722Z,75
2017-11-18T09:38:40.377Z,75
2017-11-18T09:39:20.823Z,80
2017-11-18T09:40:01.400Z,80
2017-11-18T09:40:42.153Z,80
2017-11-18T09:41:22.737Z,80
2017-11-18T09:42:03.286Z,85
2017-11-18T09:42:43.831Z,85
2017-11-18T09:43:24.334Z,90
2017-11-18T09:44:04.960Z,90
2017-11-18T09:44:45.537Z,95
2017-11-18T09:45:26.196Z,100
2017-11-18T09:46:06.893Z,100
2017-11-18T09:46:47.409Z,100
2017-11-18T09:47:27.947Z,100
2017-11-18T09:48:08.507Z,100
2017-11-18T09:48:49.133Z,100
2017-11-18T09:49:29.585Z,95
2017-11-18T09:50:10.147Z,95
2017-11-18T09:50:50.654Z,100
2017-11-18T09:51:31.267Z,105
2017-11-18T09:52:11.885Z,105
2017-11-18T09:52:52.401Z,100
2017-11-18T09:53:32.944Z,100
2017-11-18T09:54:13.503Z,95
2017-11-18T09:54:54.024Z,90
2017-11-18T09:55:34.592Z,90
2017-11-18T09:56:15.156Z,90
2017-11-18T09:56:55.651Z,85
2017-11-18T09:57:36.226Z,85
2017-11-18T09:58:16.763Z,85
2017-11-18T09:58:57.373Z,90
2017-11-18T09:59:37.935Z,90
2017-11-18T10:00:18.489Z,90
2017-11-18T10:00:59.014Z,95